sensor_id;sensor_type;location;lat;lon;timestamp;pressure;altitude;pressure_sealevel;temperature;humidity
9474;BME280;8865;47.636;7.692;2023-04-07T00:00:15;98293.50;;;9.73;100.00
9474;BME280;8865;47.636;7.692;2023-04-07T00:02:41;98286.47;;;9.73;100.00
9474;BME280;8865;47.636;7.692;2023-04-07T00:05:12;98285.78;;;9.71;100.00
9474;BME280;8865;47.636;7.692;2023-04-07T00:07:39;98285.91;;;9.70;100.00
9474;BME280;8865;47.636;7.692;2023-04-07T00:10:07;98274.28;;;9.62;100.00
9474;BME280;8865;47.636;7.692;2023-04-07T00:13:16;98272.16;;;9.56;100.00
9474;BME280;8865;47.636;7.692;2023-04-07T00:15:45;98274.56;;;9.48;100.00
9474;BME280;8865;47.636;7.692;2023-04-07T00:18:14;98279.44;;;9.41;100.00
9474;BME280;8865;47.636;7.692;2023-04-07T00:21:13;98282.69;;;9.34;100.00
9474;BME280;8865;47.636;7.692;2023-04-07T00:27:21;98272.59;;;9.29;100.00
9474;BME280;8865;47.636;7.692;2023-04-07T00:29:53;98272.34;;;9.32;100.00
9474;BME280;8865;47.636;7.692;2023-04-07T00:32:28;98270.34;;;9.36;100.00
9474;BME280;8865;47.636;7.692;2023-04-07T00:34:57;98264.00;;;9.38;100.00
9474;BME280;8865;47.636;7.692;2023-04-07T00:37:29;98264.00;;;9.38;100.00
9474;BME280;8865;47.636;7.692;2023-04-07T00:39:58;98265.00;;;9.37;100.00
9474;BME280;8865;47.636;7.692;2023-04-07T00:42:24;98258.91;;;9.37;100.00
9474;BME280;8865;47.636;7.692;2023-04-07T00:44:55;98256.56;;;9.34;100.00
9474;BME280;8865;47.636;7.692;2023-04-07T00:47:24;98249.69;;;9.33;100.00
9474;BME280;8865;47.636;7.692;2023-04-07T00:49:50;98249.09;;;9.29;100.00
9474;BME280;8865;47.636;7.692;2023-04-07T00:52:18;98249.19;;;9.27;100.00
9474;BME280;8865;47.636;7.692;2023-04-07T00:54:53;98246.16;;;9.22;100.00
9474;BME280;8865;47.636;7.692;2023-04-07T00:57:27;98243.09;;;9.17;100.00
9474;BME280;8865;47.636;7.692;2023-04-07T00:59:57;98248.31;;;9.17;100.00
9474;BME280;8865;47.636;7.692;2023-04-07T01:03:04;98246.53;;;9.18;100.00
9474;BME280;8865;47.636;7.692;2023-04-07T01:05:52;98240.72;;;9.14;100.00
9474;BME280;8865;47.636;7.692;2023-04-07T01:08:52;98230.28;;;9.14;100.00
9474;BME280;8865;47.636;7.692;2023-04-07T01:12:38;98232.41;;;9.09;100.00
9474;BME280;8865;47.636;7.692;2023-04-07T01:15:26;98226.72;;;9.04;100.00
9474;BME280;8865;47.636;7.692;2023-04-07T10:11:44;98299.97;;;8.23;100.00
9474;BME280;8865;47.636;7.692;2023-04-07T10:14:13;98293.09;;;8.22;100.00
9474;BME280;8865;47.636;7.692;2023-04-07T10:16:41;98296.75;;;8.19;100.00
9474;BME280;8865;47.636;7.692;2023-04-07T10:19:08;98291.06;;;8.26;100.00
9474;BME280;8865;47.636;7.692;2023-04-07T10:21:37;98298.44;;;8.32;100.00
9474;BME280;8865;47.636;7.692;2023-04-07T10:27:03;98314.75;;;8.58;100.00
9474;BME280;8865;47.636;7.692;2023-04-07T10:29:34;98309.69;;;8.21;100.00
9474;BME280;8865;47.636;7.692;2023-04-07T10:32:01;98318.09;;;8.13;100.00
9474;BME280;8865;47.636;7.692;2023-04-07T10:37:21;98318.34;;;7.50;100.00
9474;BME280;8865;47.636;7.692;2023-04-07T10:39:48;98323.34;;;7.54;100.00
9474;BME280;8865;47.636;7.692;2023-04-07T10:45:08;98321.69;;;7.53;100.00
9474;BME280;8865;47.636;7.692;2023-04-07T10:50:24;98342.19;;;7.81;100.00
9474;BME280;8865;47.636;7.692;2023-04-07T10:53:11;98332.66;;;8.04;100.00
9474;BME280;8865;47.636;7.692;2023-04-07T10:55:44;98342.09;;;8.41;100.00
9474;BME280;8865;47.636;7.692;2023-04-07T11:03:38;98322.56;;;10.33;100.00
9474;BME280;8865;47.636;7.692;2023-04-07T11:06:09;98308.91;;;10.91;100.00
9474;BME280;8865;47.636;7.692;2023-04-07T11:11:02;98291.22;;;12.02;100.00
9474;BME280;8865;47.636;7.692;2023-04-07T11:13:47;98291.00;;;12.43;100.00
9474;BME280;8865;47.636;7.692;2023-04-07T11:16:14;98288.03;;;12.93;100.00
9474;BME280;8865;47.636;7.692;2023-04-07T11:18:42;98287.25;;;13.29;100.00
9474;BME280;8865;47.636;7.692;2023-04-07T11:21:09;98285.03;;;14.40;100.00
9474;BME280;8865;47.636;7.692;2023-04-07T11:23:40;98285.25;;;15.32;100.00
9474;BME280;8865;47.636;7.692;2023-04-07T11:26:08;98282.22;;;15.95;93.42
9474;BME280;8865;47.636;7.692;2023-04-07T11:28:52;98281.97;;;15.39;94.49
9474;BME280;8865;47.636;7.692;2023-04-07T11:31:22;98279.56;;;15.95;79.42
9474;BME280;8865;47.636;7.692;2023-04-07T11:34:00;98281.50;;;16.34;78.90
9474;BME280;8865;47.636;7.692;2023-04-07T11:36:30;98284.03;;;16.19;72.78
9474;BME280;8865;47.636;7.692;2023-04-07T11:38:57;98282.63;;;16.56;77.57
9474;BME280;8865;47.636;7.692;2023-04-07T11:41:25;98285.34;;;15.98;74.77
9474;BME280;8865;47.636;7.692;2023-04-07T11:44:09;98282.69;;;15.98;77.83
9474;BME280;8865;47.636;7.692;2023-04-07T11:46:51;98281.44;;;16.67;88.09
9474;BME280;8865;47.636;7.692;2023-04-07T11:49:18;98279.16;;;17.03;79.93
9474;BME280;8865;47.636;7.692;2023-04-07T11:51:44;98279.22;;;17.18;77.58
9474;BME280;8865;47.636;7.692;2023-04-07T11:54:10;98280.44;;;16.59;71.93
9474;BME280;8865;47.636;7.692;2023-04-07T11:56:45;98288.34;;;15.87;79.80
9474;BME280;8865;47.636;7.692;2023-04-07T11:59:19;98291.38;;;15.33;93.77
9474;BME280;8865;47.636;7.692;2023-04-07T12:01:48;98292.59;;;14.96;88.10
9474;BME280;8865;47.636;7.692;2023-04-07T12:04:15;98299.84;;;14.33;95.06
9474;BME280;8865;47.636;7.692;2023-04-07T12:06:42;98295.50;;;13.80;96.53
9474;BME280;8865;47.636;7.692;2023-04-07T12:09:27;98298.47;;;13.03;100.00
9474;BME280;8865;47.636;7.692;2023-04-07T12:11:55;98301.16;;;12.65;100.00
9474;BME280;8865;47.636;7.692;2023-04-07T12:14:25;98304.00;;;12.35;100.00
9474;BME280;8865;47.636;7.692;2023-04-07T12:16:52;98302.00;;;12.09;100.00
9474;BME280;8865;47.636;7.692;2023-04-07T12:19:31;98304.47;;;11.61;100.00
9474;BME280;8865;47.636;7.692;2023-04-07T12:22:00;98296.75;;;11.60;100.00
9474;BME280;8865;47.636;7.692;2023-04-07T12:24:26;98306.53;;;11.58;100.00
9474;BME280;8865;47.636;7.692;2023-04-07T12:26:53;98314.38;;;11.29;100.00
9474;BME280;8865;47.636;7.692;2023-04-07T12:29:19;98311.06;;;11.17;100.00
9474;BME280;8865;47.636;7.692;2023-04-07T12:31:45;98306.44;;;10.99;100.00
9474;BME280;8865;47.636;7.692;2023-04-07T12:34:11;98308.91;;;10.91;100.00
9474;BME280;8865;47.636;7.692;2023-04-07T12:36:37;98325.91;;;10.97;100.00
9474;BME280;8865;47.636;7.692;2023-04-07T12:39:03;98317.69;;;10.80;100.00
9474;BME280;8865;47.636;7.692;2023-04-07T12:41:29;98316.25;;;10.66;100.00
9474;BME280;8865;47.636;7.692;2023-04-07T12:43:56;98324.81;;;10.68;100.00
9474;BME280;8865;47.636;7.692;2023-04-07T12:46:22;98312.69;;;10.25;100.00
9474;BME280;8865;47.636;7.692;2023-04-07T12:48:48;98324.47;;;10.10;100.00
9474;BME280;8865;47.636;7.692;2023-04-07T12:51:14;98319.03;;;10.01;100.00
9474;BME280;8865;47.636;7.692;2023-04-07T12:53:40;98320.75;;;10.12;100.00
9474;BME280;8865;47.636;7.692;2023-04-07T12:56:06;98321.84;;;10.10;100.00
9474;BME280;8865;47.636;7.692;2023-04-07T12:58:32;98319.78;;;9.71;100.00
9474;BME280;8865;47.636;7.692;2023-04-07T13:00:59;98316.97;;;9.84;100.00
9474;BME280;8865;47.636;7.692;2023-04-07T13:03:25;98324.53;;;9.98;100.00
9474;BME280;8865;47.636;7.692;2023-04-07T13:05:51;98323.09;;;9.94;100.00
9474;BME280;8865;47.636;7.692;2023-04-07T13:08:20;98317.31;;;9.91;100.00
9474;BME280;8865;47.636;7.692;2023-04-07T13:10:46;98318.19;;;10.01;100.00
9474;BME280;8865;47.636;7.692;2023-04-07T13:13:12;98323.19;;;9.83;100.00
9474;BME280;8865;47.636;7.692;2023-04-07T13:15:38;98321.25;;;9.53;100.00
9474;BME280;8865;47.636;7.692;2023-04-07T13:18:04;98326.75;;;9.82;100.00
9474;BME280;8865;47.636;7.692;2023-04-07T13:20:31;98329.16;;;9.74;100.00
9474;BME280;8865;47.636;7.692;2023-04-07T13:22:57;98325.97;;;9.91;100.00
9474;BME280;8865;47.636;7.692;2023-04-07T13:25:23;98325.34;;;9.99;100.00
9474;BME280;8865;47.636;7.692;2023-04-07T13:27:49;98327.34;;;10.07;100.00
9474;BME280;8865;47.636;7.692;2023-04-07T13:30:15;98323.50;;;10.11;100.00
9474;BME280;8865;47.636;7.692;2023-04-07T13:32:42;98318.72;;;10.16;100.00
9474;BME280;8865;47.636;7.692;2023-04-07T13:35:08;98318.22;;;10.43;100.00
9474;BME280;8865;47.636;7.692;2023-04-07T13:37:34;98323.88;;;10.48;100.00
9474;BME280;8865;47.636;7.692;2023-04-07T13:40:00;98322.09;;;10.49;100.00
9474;BME280;8865;47.636;7.692;2023-04-07T13:42:26;98319.66;;;10.57;100.00
9474;BME280;8865;47.636;7.692;2023-04-07T13:44:52;98312.16;;;10.74;100.00
9474;BME280;8865;47.636;7.692;2023-04-07T13:47:19;98315.94;;;10.90;100.00
9474;BME280;8865;47.636;7.692;2023-04-07T13:49:46;98310.72;;;11.00;100.00
9474;BME280;8865;47.636;7.692;2023-04-07T13:52:12;98311.19;;;11.15;100.00
9474;BME280;8865;47.636;7.692;2023-04-07T13:54:39;98313.38;;;11.10;100.00
9474;BME280;8865;47.636;7.692;2023-04-07T13:57:05;98306.06;;;11.14;100.00
9474;BME280;8865;47.636;7.692;2023-04-07T13:59:31;98310.50;;;11.23;100.00
9474;BME280;8865;47.636;7.692;2023-04-07T14:01:57;98309.25;;;11.27;100.00
9474;BME280;8865;47.636;7.692;2023-04-07T14:04:23;98307.25;;;11.60;100.00
9474;BME280;8865;47.636;7.692;2023-04-07T14:06:49;98303.50;;;11.92;100.00
9474;BME280;8865;47.636;7.692;2023-04-07T14:09:15;98306.53;;;12.07;100.00
9474;BME280;8865;47.636;7.692;2023-04-07T14:11:41;98301.19;;;11.99;100.00
9474;BME280;8865;47.636;7.692;2023-04-07T14:14:07;98308.75;;;11.43;100.00
9474;BME280;8865;47.636;7.692;2023-04-07T14:16:33;98303.22;;;11.75;100.00
9474;BME280;8865;47.636;7.692;2023-04-07T14:18:59;98303.78;;;11.79;100.00
9474;BME280;8865;47.636;7.692;2023-04-07T14:21:25;98304.47;;;11.52;100.00
9474;BME280;8865;47.636;7.692;2023-04-07T14:23:53;98313.41;;;11.39;100.00
9474;BME280;8865;47.636;7.692;2023-04-07T14:26:19;98308.84;;;11.22;100.00
9474;BME280;8865;47.636;7.692;2023-04-07T14:28:46;98302.06;;;11.19;100.00
9474;BME280;8865;47.636;7.692;2023-04-07T14:31:15;98310.59;;;11.12;100.00
9474;BME280;8865;47.636;7.692;2023-04-07T14:33:42;98308.56;;;11.15;100.00
9474;BME280;8865;47.636;7.692;2023-04-07T14:36:09;98306.91;;;11.24;100.00
9474;BME280;8865;47.636;7.692;2023-04-07T14:38:35;98301.28;;;11.48;100.00
9474;BME280;8865;47.636;7.692;2023-04-07T14:41:01;98299.50;;;11.58;100.00
9474;BME280;8865;47.636;7.692;2023-04-07T14:43:28;98302.13;;;11.88;100.00
9474;BME280;8865;47.636;7.692;2023-04-07T14:45:55;98301.00;;;12.10;100.00
9474;BME280;8865;47.636;7.692;2023-04-07T14:48:22;98298.59;;;12.46;100.00
9474;BME280;8865;47.636;7.692;2023-04-07T14:50:49;98298.28;;;13.14;100.00
9474;BME280;8865;47.636;7.692;2023-04-07T14:53:15;98301.19;;;13.39;100.00
9474;BME280;8865;47.636;7.692;2023-04-07T14:55:41;98293.38;;;13.83;100.00
9474;BME280;8865;47.636;7.692;2023-04-07T14:58:07;98289.38;;;14.23;100.00
9474;BME280;8865;47.636;7.692;2023-04-07T15:00:33;98288.03;;;14.45;96.62
9474;BME280;8865;47.636;7.692;2023-04-07T15:03:00;98286.25;;;14.54;95.09
9474;BME280;8865;47.636;7.692;2023-04-07T15:05:26;98290.28;;;14.32;88.44
9474;BME280;8865;47.636;7.692;2023-04-07T15:07:53;98286.88;;;13.96;90.40
9474;BME280;8865;47.636;7.692;2023-04-07T15:10:19;98290.22;;;13.80;97.02
9474;BME280;8865;47.636;7.692;2023-04-07T15:12:45;98290.69;;;13.75;97.43
9474;BME280;8865;47.636;7.692;2023-04-07T15:15:12;98286.16;;;13.49;98.71
9474;BME280;8865;47.636;7.692;2023-04-07T15:17:38;98283.66;;;12.84;99.37
9474;BME280;8865;47.636;7.692;2023-04-07T15:20:05;98289.91;;;12.36;100.00
9474;BME280;8865;47.636;7.692;2023-04-07T15:22:31;98289.91;;;12.36;100.00
9474;BME280;8865;47.636;7.692;2023-04-07T15:24:57;98288.94;;;12.27;100.00
9474;BME280;8865;47.636;7.692;2023-04-07T15:27:23;98288.44;;;12.13;100.00
9474;BME280;8865;47.636;7.692;2023-04-07T15:29:49;98291.44;;;12.38;100.00
9474;BME280;8865;47.636;7.692;2023-04-07T15:32:15;98293.38;;;12.26;100.00
9474;BME280;8865;47.636;7.692;2023-04-07T15:34:41;98291.34;;;12.10;100.00
9474;BME280;8865;47.636;7.692;2023-04-07T15:37:07;98296.06;;;11.87;100.00
9474;BME280;8865;47.636;7.692;2023-04-07T15:39:34;98295.09;;;11.69;100.00
9474;BME280;8865;47.636;7.692;2023-04-07T15:42:00;98299.06;;;11.53;100.00
9474;BME280;8865;47.636;7.692;2023-04-07T15:44:26;98297.94;;;11.36;100.00
9474;BME280;8865;47.636;7.692;2023-04-07T15:46:52;98299.75;;;11.26;100.00
9474;BME280;8865;47.636;7.692;2023-04-07T15:49:18;98306.75;;;11.06;100.00
9474;BME280;8865;47.636;7.692;2023-04-07T15:51:47;98307.28;;;11.00;100.00
9474;BME280;8865;47.636;7.692;2023-04-07T15:54:14;98298.13;;;10.84;100.00
9474;BME280;8865;47.636;7.692;2023-04-07T15:56:40;98305.53;;;10.79;100.00
9474;BME280;8865;47.636;7.692;2023-04-07T15:59:06;98307.19;;;10.70;100.00
9474;BME280;8865;47.636;7.692;2023-04-07T16:01:32;98311.53;;;10.60;100.00
9474;BME280;8865;47.636;7.692;2023-04-07T16:03:58;98305.88;;;10.55;100.00
9474;BME280;8865;47.636;7.692;2023-04-07T16:06:24;98303.75;;;10.49;100.00
9474;BME280;8865;47.636;7.692;2023-04-07T16:08:50;98312.59;;;10.48;100.00
